createdAt,value
2022-12-12T00:00:43.422Z,8.32
2022-12-12T00:03:10.625Z,9.13
2022-12-12T00:05:37.849Z,8.65
2022-12-12T00:08:04.906Z,7.93
2022-12-12T00:10:32.149Z,7.50
2022-12-12T00:12:59.109Z,9.13
2022-12-12T00:15:25.821Z,8.35
2022-12-12T00:17:52.491Z,9.35
2022-12-12T00:20:19.297Z,8.40
2022-12-12T00:22:46.394Z,8.88
2022-12-12T00:25:13.670Z,8.70
2022-12-12T00:27:40.564Z,8.13
2022-12-12T00:30:07.769Z,8.57
2022-12-12T00:32:34.860Z,9.43
2022-12-12T00:35:01.613Z,8.73
2022-12-12T00:37:28.280Z,9.15
2022-12-12T00:39:54.957Z,9.07
2022-12-12T00:42:21.620Z,9.43
2022-12-12T00:44:48.261Z,9.18
2022-12-12T00:47:14.895Z,8.93
2022-12-12T00:49:41.535Z,9.55
2022-12-12T00:52:08.154Z,10.02
2022-12-12T00:54:34.800Z,9.10
2022-12-12T00:57:01.500Z,10.00
2022-12-12T00:59:28.157Z,9.40
2022-12-12T01:01:54.855Z,9.45
2022-12-12T01:04:21.534Z,9.38
2022-12-12T01:06:48.180Z,9.80
2022-12-12T01:09:14.868Z,9.05
2022-12-12T01:11:41.528Z,9.65
2022-12-12T01:14:08.270Z,8.55
2022-12-12T01:16:34.987Z,9.80
2022-12-12T01:19:01.769Z,10.27
2022-12-12T01:21:28.443Z,9.48
2022-12-12T01:23:55.286Z,9.38
2022-12-12T01:26:24.850Z,9.60
2022-12-12T01:28:52.417Z,10.68
2022-12-12T01:31:19.269Z,10.48
2022-12-12T01:33:46.528Z,9.20
2022-12-12T01:36:16.701Z,10.68
2022-12-12T01:38:48.196Z,10.77
2022-12-12T01:41:16.246Z,10.65
2022-12-12T01:43:43.075Z,10.50
2022-12-12T01:46:33.421Z,11.77
2022-12-12T01:49:17.799Z,9.82
2022-12-12T01:51:45.309Z,10.38
2022-12-12T01:54:16.777Z,10.95
2022-12-12T01:56:45.125Z,11.05
2022-12-12T01:59:14.031Z,10.60
2022-12-12T02:01:41.561Z,10.80
2022-12-12T02:04:10.462Z,10.18
2022-12-12T02:06:38.325Z,11.20
2022-12-12T02:09:09.707Z,10.82
2022-12-12T02:11:43.300Z,11.70
2022-12-12T02:14:10.303Z,9.65
2022-12-12T02:17:12.076Z,11.70
2022-12-12T02:19:49.415Z,11.82
2022-12-12T02:22:55.928Z,11.60
2022-12-12T02:25:53.230Z,10.80
2022-12-12T02:28:19.898Z,11.98
2022-12-12T02:31:21.673Z,10.93
2022-12-12T02:34:14.482Z,11.25
2022-12-12T02:37:03.215Z,10.98
2022-12-12T02:39:47.836Z,11.32
2022-12-12T02:42:30.881Z,10.48
2022-12-12T02:45:09.889Z,11.95
2022-12-12T02:47:44.146Z,10.68
2022-12-12T02:50:18.550Z,11.93
2022-12-12T02:52:47.818Z,10.75
2022-12-12T02:55:16.860Z,11.90
2022-12-12T02:57:43.684Z,11.70
2022-12-12T03:00:13.795Z,11.02
2022-12-12T03:02:41.422Z,11.10
2022-12-12T03:05:44.914Z,11.45
2022-12-12T03:08:36.566Z,11.20
2022-12-12T03:11:11.492Z,11.45
2022-12-12T03:13:57.777Z,11.38
2022-12-12T03:16:39.768Z,13.07
2022-12-12T03:19:18.656Z,11.25
2022-12-12T03:21:55.457Z,11.73
2022-12-12T03:24:34.716Z,11.88
2022-12-12T03:27:10.563Z,11.43
2022-12-12T03:29:44.658Z,12.52
2022-12-12T03:32:17.268Z,12.10
2022-12-12T03:34:50.150Z,12.77
2022-12-12T03:37:21.369Z,12.38
2022-12-12T03:39:55.068Z,12.80
2022-12-12T03:42:27.931Z,12.38
2022-12-12T03:45:02.183Z,12.80
2022-12-12T03:47:38.983Z,13.00
2022-12-12T03:50:14.098Z,13.77
2022-12-12T03:52:48.007Z,12.80
2022-12-12T03:55:24.628Z,12.93
2022-12-12T03:58:08.649Z,12.85
2022-12-12T04:00:37.537Z,12.45
2022-12-12T04:03:19.177Z,12.93
2022-12-12T04:06:18.060Z,13.68
2022-12-12T04:09:06.141Z,14.02
2022-12-12T04:11:55.719Z,14.00
2022-12-12T04:14:52.976Z,13.90
2022-12-12T04:17:25.685Z,13.93
2022-12-12T04:20:16.231Z,16.02
2022-12-12T04:23:08.154Z,15.32
2022-12-12T04:26:02.330Z,14.52
2022-12-12T04:28:32.174Z,14.75
2022-12-12T04:31:04.992Z,15.63
2022-12-12T04:33:41.983Z,14.75
2022-12-12T04:36:12.154Z,15.35
2022-12-12T04:38:40.236Z,13.35
2022-12-12T04:41:09.186Z,17.02
2022-12-12T04:43:39.206Z,15.07
2022-12-12T04:46:10.872Z,15.32
2022-12-12T04:48:51.823Z,18.40
2022-12-12T04:51:28.600Z,14.68
2022-12-12T04:54:05.905Z,15.88
2022-12-12T04:56:36.893Z,15.70
2022-12-12T04:59:06.635Z,15.82
2022-12-12T05:01:55.155Z,15.73
2022-12-12T05:04:36.306Z,13.75
2022-12-12T05:07:10.541Z,14.68
2022-12-12T05:09:37.744Z,15.93
2022-12-12T05:12:04.978Z,15.88
2022-12-12T05:14:32.063Z,15.35
2022-12-12T05:17:05.427Z,14.63
2022-12-12T05:19:32.213Z,15.38
2022-12-12T05:21:58.952Z,15.13
2022-12-12T05:24:30.782Z,16.23
2022-12-12T05:26:58.642Z,15.52
2022-12-12T05:29:25.408Z,15.52
2022-12-12T05:31:52.166Z,16.27
2022-12-12T05:34:18.873Z,15.43
2022-12-12T05:36:45.821Z,15.95
2022-12-12T05:39:12.469Z,15.18
2022-12-12T05:41:39.149Z,14.57
2022-12-12T05:44:05.978Z,14.73
2022-12-12T05:46:32.837Z,13.90
2022-12-12T05:48:59.598Z,15.38
2022-12-12T05:51:26.238Z,14.18
2022-12-12T05:53:52.955Z,14.48
2022-12-12T05:56:19.728Z,14.02
2022-12-12T05:58:47.134Z,13.95
2022-12-12T06:01:17.693Z,15.48
2022-12-12T06:03:54.608Z,15.07
2022-12-12T06:06:25.240Z,13.90
2022-12-12T06:08:51.926Z,14.68
2022-12-12T06:11:18.753Z,15.45
2022-12-12T06:13:54.225Z,14.23
2022-12-12T06:16:21.600Z,13.82
2022-12-12T06:18:52.846Z,14.30
2022-12-12T06:21:20.684Z,13.15
2022-12-12T06:23:47.862Z,13.45
2022-12-12T06:26:16.761Z,13.18
2022-12-12T06:28:44.204Z,13.95
2022-12-12T06:31:12.542Z,14.18
2022-12-12T06:33:41.061Z,12.95
2022-12-12T06:36:14.097Z,13.80
2022-12-12T06:38:41.466Z,14.13
2022-12-12T06:41:11.073Z,13.52
2022-12-12T06:43:37.999Z,14.10
2022-12-12T06:46:06.797Z,13.18
2022-12-12T06:48:34.913Z,13.65
2022-12-12T06:51:07.143Z,13.43
2022-12-12T06:53:33.855Z,13.70
2022-12-12T06:56:00.496Z,13.07
2022-12-12T06:58:27.130Z,13.88
2022-12-12T07:00:54.693Z,14.40
2022-12-12T07:03:21.363Z,14.38
2022-12-12T07:05:48.517Z,14.77
2022-12-12T07:08:16.460Z,13.77
2022-12-12T07:10:44.217Z,13.35
2022-12-12T07:13:14.440Z,14.60
2022-12-12T07:15:46.464Z,13.77
2022-12-12T07:18:14.222Z,14.82
2022-12-12T07:20:42.443Z,15.10
2022-12-12T07:23:09.942Z,13.55
2022-12-12T07:25:45.458Z,15.23
2022-12-12T07:28:13.823Z,14.27
2022-12-12T07:30:44.493Z,13.90
2022-12-12T07:33:12.348Z,14.35
2022-12-12T07:35:39.028Z,14.77
2022-12-12T07:38:06.194Z,14.18
2022-12-12T07:40:33.720Z,14.70
2022-12-12T07:43:00.827Z,14.75
2022-12-12T07:45:27.718Z,15.55
2022-12-12T07:47:54.817Z,15.15
2022-12-12T07:50:22.749Z,15.68
2022-12-12T07:52:49.463Z,15.80
2022-12-12T07:55:16.321Z,16.13
2022-12-12T07:57:42.981Z,13.95
2022-12-12T08:00:13.270Z,15.07
2022-12-12T08:02:40.479Z,15.60
2022-12-12T08:05:07.777Z,14.48
2022-12-12T08:07:34.444Z,14.80
2022-12-12T08:10:01.127Z,13.65
2022-12-12T08:12:30.028Z,14.77
2022-12-12T08:14:56.817Z,14.43
2022-12-12T08:17:23.609Z,13.20
2022-12-12T08:19:51.259Z,13.32
2022-12-12T08:22:17.962Z,13.73
2022-12-12T08:24:44.678Z,12.82
2022-12-12T08:27:15.490Z,13.63
2022-12-12T08:29:43.209Z,14.30
2022-12-12T08:32:09.890Z,12.65
2022-12-12T08:34:36.562Z,13.10
2022-12-12T08:37:03.498Z,12.82
2022-12-12T08:39:30.201Z,13.93
2022-12-12T08:41:56.810Z,13.57
2022-12-12T08:44:23.466Z,13.52
2022-12-12T08:46:50.774Z,13.05
2022-12-12T08:49:17.713Z,12.93
2022-12-12T08:51:44.427Z,12.48
2022-12-12T08:54:13.048Z,13.35
2022-12-12T08:56:40.550Z,13.40
2022-12-12T08:59:07.237Z,12.88
2022-12-12T09:01:34.003Z,12.38
2022-12-12T09:04:00.808Z,12.95
2022-12-12T09:06:27.787Z,12.85
2022-12-12T09:08:56.268Z,12.55
2022-12-12T09:11:23.570Z,13.32
2022-12-12T09:13:50.389Z,13.38
2022-12-12T09:16:17.253Z,14.10
2022-12-12T09:18:48.672Z,13.15
2022-12-12T09:21:16.935Z,14.32
2022-12-12T09:23:43.664Z,14.45
2022-12-12T09:26:10.609Z,15.82
2022-12-12T09:28:38.335Z,14.20
2022-12-12T09:31:07.484Z,13.68
2022-12-12T09:33:35.322Z,14.68
2022-12-12T09:36:05.058Z,14.52
2022-12-12T09:38:32.414Z,15.82
2022-12-12T09:41:11.747Z,14.45
2022-12-12T09:43:47.950Z,14.13
2022-12-12T09:46:27.724Z,14.23
2022-12-12T09:49:02.611Z,14.75
2022-12-12T09:51:29.303Z,15.23
2022-12-12T09:53:56.280Z,13.23
2022-12-12T09:56:31.957Z,15.20
2022-12-12T09:59:18.010Z,14.30
2022-12-12T10:02:13.031Z,14.93
2022-12-12T10:04:51.991Z,14.10
2022-12-12T10:07:27.134Z,14.80
2022-12-12T10:10:16.039Z,14.80
2022-12-12T10:12:44.271Z,14.00
2022-12-12T10:15:23.365Z,13.90
2022-12-12T10:17:50.456Z,13.63
2022-12-12T10:20:22.591Z,13.73
2022-12-12T10:22:56.412Z,13.82
2022-12-12T10:25:28.803Z,15.18
2022-12-12T10:28:09.184Z,15.57
2022-12-12T10:30:50.846Z,13.40
2022-12-12T10:33:41.160Z,13.82
2022-12-12T10:36:36.582Z,14.00
2022-12-12T10:39:10.074Z,13.27
2022-12-12T10:41:47.288Z,13.80
2022-12-12T10:44:22.060Z,13.90
2022-12-12T10:47:10.646Z,14.32
2022-12-12T10:49:37.909Z,14.68
2022-12-12T10:52:11.794Z,14.55
2022-12-12T10:54:46.628Z,15.32
2022-12-12T10:57:21.920Z,14.45
2022-12-12T10:59:51.491Z,14.35
2022-12-12T11:02:35.062Z,13.95
2022-12-12T11:05:17.463Z,14.02
2022-12-12T11:07:48.550Z,14.10
2022-12-12T11:10:35.947Z,14.57
2022-12-12T11:13:20.999Z,12.73
2022-12-12T11:15:56.606Z,12.23
2022-12-12T11:18:24.378Z,13.68
2022-12-12T11:21:12.299Z,14.32
2022-12-12T11:23:44.777Z,14.15
2022-12-12T11:26:20.385Z,14.18
2022-12-12T11:29:01.311Z,13.57
2022-12-12T11:31:32.878Z,13.73
2022-12-12T11:34:04.654Z,14.65
2022-12-12T11:36:35.606Z,14.10
2022-12-12T11:39:14.373Z,14.70
2022-12-12T11:41:57.323Z,14.50
2022-12-12T11:44:27.620Z,12.55
2022-12-12T11:46:54.323Z,12.88
2022-12-12T11:49:21.070Z,12.82
2022-12-12T11:51:48.360Z,13.10
2022-12-12T11:54:23.044Z,12.73
2022-12-12T11:57:03.447Z,14.32
2022-12-12T11:59:46.885Z,12.23
2022-12-12T12:02:31.481Z,14.15
2022-12-12T12:05:17.998Z,15.63
2022-12-12T12:07:55.717Z,13.85
2022-12-12T12:10:46.975Z,14.07
2022-12-12T12:13:37.957Z,13.80
2022-12-12T12:16:19.741Z,13.50
2022-12-12T12:19:13.863Z,12.20
2022-12-12T12:21:41.488Z,13.30
2022-12-12T12:24:29.057Z,14.85
2022-12-12T12:27:30.748Z,13.40
2022-12-12T12:30:21.320Z,14.13
2022-12-12T12:32:55.149Z,14.38
2022-12-12T12:35:31.731Z,14.15
2022-12-12T12:38:13.948Z,14.05
2022-12-12T12:40:55.993Z,13.18
2022-12-12T12:43:23.607Z,13.18
2022-12-12T12:45:57.668Z,14.73
2022-12-12T12:48:28.939Z,14.93
2022-12-12T12:51:18.525Z,15.13
2022-12-12T12:53:51.501Z,15.75
2022-12-12T12:56:38.575Z,15.73
2022-12-12T12:59:14.988Z,15.32
2022-12-12T13:01:45.705Z,14.57
2022-12-12T13:04:16.675Z,14.55
2022-12-12T13:06:52.357Z,15.52
2022-12-12T13:09:27.483Z,14.35
2022-12-12T13:12:01.648Z,13.32
2022-12-12T13:14:38.488Z,13.88
2022-12-12T13:17:07.961Z,12.82
2022-12-12T13:19:39.373Z,12.82
2022-12-12T13:22:07.020Z,12.60
2022-12-12T13:24:59.774Z,13.63
2022-12-12T13:27:29.626Z,12.00
2022-12-12T13:30:04.119Z,12.68
2022-12-12T13:33:06.012Z,12.23
2022-12-12T13:35:42.585Z,11.32
2022-12-12T13:38:20.480Z,11.57
2022-12-12T13:40:56.806Z,11.15
2022-12-12T13:43:30.991Z,10.35
2022-12-12T13:45:57.913Z,11.32
2022-12-12T13:48:45.940Z,9.18
2022-12-12T13:51:28.805Z,8.70
2022-12-12T13:54:13.851Z,8.90
2022-12-12T13:56:42.457Z,9.13
2022-12-12T13:59:25.468Z,10.13
2022-12-12T14:01:55.223Z,8.98
2022-12-12T14:04:27.529Z,9.60
2022-12-12T14:07:17.043Z,9.48
2022-12-12T14:09:49.554Z,9.40
2022-12-12T14:12:29.187Z,9.27
2022-12-12T14:15:06.291Z,10.00
2022-12-12T14:17:42.356Z,8.60
2022-12-12T14:20:25.522Z,8.98
2022-12-12T14:22:52.166Z,8.57
2022-12-12T14:25:29.141Z,9.70
2022-12-12T14:28:14.277Z,10.55
2022-12-12T14:30:50.516Z,8.85
2022-12-12T14:36:04.677Z,9.70
2022-12-12T14:38:42.622Z,8.80
2022-12-12T14:41:16.404Z,9.32
2022-12-12T14:44:36.928Z,9.65
2022-12-12T14:46:42.286Z,9.82
2022-12-12T14:49:16.127Z,9.32
2022-12-12T14:51:45.447Z,9.65
2022-12-12T14:54:17.768Z,10.00
2022-12-12T14:56:53.267Z,10.27
2022-12-12T14:59:28.041Z,11.23
2022-12-12T15:01:58.834Z,10.07
2022-12-12T15:04:31.367Z,10.35
2022-12-12T15:06:59.809Z,11.43
2022-12-12T15:09:29.733Z,11.35
2022-12-12T15:12:11.700Z,11.75
2022-12-12T15:14:55.651Z,12.52
2022-12-12T15:17:44.145Z,12.18
2022-12-12T15:20:21.821Z,19.30
2022-12-12T15:22:53.232Z,14.52
2022-12-12T15:25:23.701Z,15.18
2022-12-12T15:27:56.758Z,13.55
2022-12-12T15:30:39.454Z,13.57
2022-12-12T15:33:14.767Z,13.02
2022-12-12T15:35:49.376Z,11.90
2022-12-12T15:38:16.198Z,12.65
2022-12-12T15:40:49.459Z,14.90
2022-12-12T15:43:23.332Z,14.25
2022-12-12T15:45:55.803Z,14.57
2022-12-12T15:48:23.572Z,12.75
2022-12-12T15:51:06.590Z,14.57
2022-12-12T15:53:37.777Z,15.23
2022-12-12T15:56:24.440Z,14.23
2022-12-12T15:58:53.816Z,16.05
2022-12-12T16:01:28.117Z,15.32
2022-12-12T16:03:59.298Z,12.73
2022-12-12T16:06:28.641Z,13.75
2022-12-12T16:09:10.573Z,16.00
2022-12-12T16:11:58.197Z,17.85
2022-12-12T16:14:24.873Z,19.73
2022-12-12T16:17:04.453Z,18.85
2022-12-12T16:19:52.855Z,17.55
2022-12-12T16:22:40.468Z,17.80
2022-12-12T16:25:27.625Z,15.20
2022-12-12T16:27:55.267Z,15.10
2022-12-12T16:30:22.244Z,18.67
2022-12-12T16:32:48.938Z,18.20
2022-12-12T16:35:18.433Z,13.85
2022-12-12T16:37:45.646Z,11.47
2022-12-12T16:40:15.682Z,12.38
2022-12-12T16:42:48.085Z,12.70
2022-12-12T16:45:14.727Z,14.07
2022-12-12T16:47:41.469Z,13.13
2022-12-12T16:50:08.353Z,15.68
2022-12-12T16:52:35.215Z,14.52
2022-12-12T16:55:02.056Z,15.82
2022-12-12T16:57:28.679Z,12.57
2022-12-12T16:59:55.306Z,13.60
2022-12-12T17:02:23.864Z,13.27
2022-12-12T17:04:51.508Z,13.18
2022-12-12T17:07:18.818Z,13.40
2022-12-12T17:09:45.738Z,15.85
2022-12-12T17:12:13.301Z,13.27
2022-12-12T17:14:40.342Z,13.77
2022-12-12T17:17:07.153Z,13.73
2022-12-12T17:19:34.537Z,13.65
2022-12-12T17:22:01.535Z,14.82
2022-12-12T17:24:28.631Z,15.05
2022-12-12T17:26:55.328Z,14.75
2022-12-12T17:29:22.762Z,14.20
2022-12-12T17:31:49.556Z,16.90
2022-12-12T17:34:16.318Z,16.35
2022-12-12T17:36:43.089Z,16.65
2022-12-12T17:39:11.232Z,14.68
2022-12-12T17:41:38.078Z,15.45
2022-12-12T17:44:05.136Z,15.02
2022-12-12T17:46:31.795Z,14.57
2022-12-12T17:48:59.659Z,14.43
2022-12-12T17:51:26.363Z,13.75
2022-12-12T17:53:53.270Z,14.70
2022-12-12T17:56:24.157Z,14.82
2022-12-12T17:58:50.913Z,13.05
2022-12-12T18:01:20.908Z,12.93
2022-12-12T18:03:48.697Z,17.08
2022-12-12T18:06:17.398Z,16.25
2022-12-12T18:08:44.743Z,15.82
2022-12-12T18:11:14.646Z,16.90
2022-12-12T18:13:42.185Z,15.85
2022-12-12T18:16:12.947Z,16.50
2022-12-12T18:18:40.240Z,17.08
2022-12-12T18:21:12.700Z,20.85
2022-12-12T18:23:41.188Z,14.63
2022-12-12T18:26:11.447Z,18.00
2022-12-12T18:28:38.172Z,18.52
2022-12-12T18:31:05.871Z,16.27
2022-12-12T18:33:32.921Z,18.33
2022-12-12T18:36:03.970Z,17.05
2022-12-12T18:38:31.846Z,13.40
2022-12-12T18:40:58.906Z,14.10
2022-12-12T18:43:27.740Z,13.85
2022-12-12T18:45:55.670Z,14.95
2022-12-12T18:48:22.671Z,13.38
2022-12-12T18:50:49.322Z,13.93
2022-12-12T18:53:16.548Z,14.50
2022-12-12T18:55:44.221Z,15.63
2022-12-12T18:58:12.088Z,14.52
2022-12-12T19:00:40.353Z,14.27
2022-12-12T19:03:08.338Z,15.15
2022-12-12T19:05:40.769Z,15.43
2022-12-12T19:08:08.500Z,15.60
2022-12-12T19:10:36.183Z,13.32
2022-12-12T19:13:03.388Z,14.35
2022-12-12T19:15:34.390Z,18.98
2022-12-12T19:18:01.115Z,19.98
2022-12-12T19:20:27.893Z,20.80
2022-12-12T19:22:54.606Z,18.20
2022-12-12T19:25:21.962Z,19.20
2022-12-12T19:27:48.623Z,19.30
2022-12-12T19:30:18.902Z,18.02
2022-12-12T19:32:48.960Z,18.45
2022-12-12T19:35:16.347Z,20.10
2022-12-12T19:37:43.014Z,17.35
2022-12-12T19:40:10.294Z,18.45
2022-12-12T19:42:37.121Z,17.23
2022-12-12T19:45:04.553Z,17.80
2022-12-12T19:47:33.361Z,15.32
2022-12-12T19:50:00.164Z,15.68
2022-12-12T19:52:27.526Z,15.85
2022-12-12T19:54:54.159Z,15.82
2022-12-12T19:57:25.663Z,15.70
2022-12-12T19:59:53.510Z,14.05
2022-12-12T20:02:20.682Z,15.18
2022-12-12T20:04:47.551Z,14.45
2022-12-12T20:07:14.290Z,15.90
2022-12-12T20:09:41.026Z,17.45
2022-12-12T20:12:07.762Z,17.38
2022-12-12T20:14:36.445Z,17.70
2022-12-12T20:17:03.518Z,17.13
2022-12-12T20:19:30.751Z,17.33
2022-12-12T20:22:00.687Z,18.90
2022-12-12T20:24:28.990Z,18.38
2022-12-12T20:26:56.161Z,14.00
2022-12-12T20:29:23.493Z,14.70
2022-12-12T20:31:50.778Z,15.45
2022-12-12T20:34:21.766Z,17.40
2022-12-12T20:36:48.561Z,16.63
2022-12-12T20:39:17.329Z,16.27
2022-12-12T20:41:45.069Z,14.80
2022-12-12T20:44:13.433Z,14.50
2022-12-12T20:46:44.012Z,14.82
2022-12-12T20:49:15.947Z,15.60
2022-12-12T20:51:59.181Z,15.55
2022-12-12T20:54:28.987Z,14.30
2022-12-12T20:56:57.246Z,16.88
2022-12-12T20:59:25.099Z,17.88
2022-12-12T21:01:52.553Z,18.42
2022-12-12T21:04:19.783Z,17.55
2022-12-12T21:06:48.747Z,17.77
2022-12-12T21:09:23.216Z,17.73
2022-12-12T21:11:53.009Z,15.87
2022-12-12T21:14:19.685Z,16.88
2022-12-12T21:16:46.508Z,17.63
2022-12-12T21:19:14.404Z,17.05
2022-12-12T21:21:43.286Z,18.70
2022-12-12T21:24:12.346Z,17.33
2022-12-12T21:26:39.119Z,19.02
2022-12-12T21:29:06.378Z,18.45
2022-12-12T21:31:36.847Z,17.60
2022-12-12T21:34:05.395Z,13.98
2022-12-12T21:36:33.390Z,17.60
2022-12-12T21:39:01.517Z,18.13
2022-12-12T21:41:28.717Z,18.55
2022-12-12T21:43:56.668Z,18.73
2022-12-12T21:46:25.578Z,18.50
2022-12-12T21:49:08.683Z,19.02
2022-12-12T21:51:35.644Z,16.75
2022-12-12T21:54:04.054Z,21.33
2022-12-12T21:56:31.276Z,21.98
2022-12-12T21:59:00.027Z,16.13
2022-12-12T22:01:27.604Z,16.50
2022-12-12T22:03:55.101Z,19.02
2022-12-12T22:06:24.344Z,13.77
2022-12-12T22:08:51.549Z,12.95
2022-12-12T22:11:40.167Z,11.93
2022-12-12T22:14:07.468Z,11.95
2022-12-12T22:16:34.968Z,13.32
2022-12-12T22:19:05.958Z,13.98
2022-12-12T22:21:34.847Z,16.85
2022-12-12T22:24:01.987Z,14.80
2022-12-12T22:26:30.240Z,11.80
2022-12-12T22:29:00.027Z,12.02
2022-12-12T22:31:29.369Z,12.40
2022-12-12T22:34:00.298Z,12.18
2022-12-12T22:36:29.432Z,11.98
2022-12-12T22:38:58.210Z,10.85
2022-12-12T22:41:25.534Z,12.40
2022-12-12T22:43:55.364Z,11.88
2022-12-12T22:46:22.748Z,11.88
2022-12-12T22:48:49.660Z,11.35
2022-12-12T22:51:19.134Z,10.38
2022-12-12T22:53:46.364Z,11.10
2022-12-12T22:56:14.233Z,12.32
2022-12-12T22:58:41.634Z,13.85
2022-12-12T23:01:10.568Z,13.73
2022-12-12T23:03:38.263Z,12.70
2022-12-12T23:06:09.384Z,12.80
2022-12-12T23:08:36.075Z,12.68
2022-12-12T23:11:07.651Z,12.85
2022-12-12T23:13:34.779Z,12.50
2022-12-12T23:16:08.468Z,13.43
2022-12-12T23:18:37.404Z,12.43
2022-12-12T23:21:06.403Z,14.02
2022-12-12T23:23:34.451Z,14.27
2022-12-12T23:26:06.595Z,13.60
2022-12-12T23:28:34.556Z,12.57
2022-12-12T23:31:04.991Z,13.80
2022-12-12T23:33:31.705Z,12.67
2022-12-12T23:35:58.377Z,12.23
2022-12-12T23:38:25.064Z,12.52
2022-12-12T23:40:51.734Z,12.63
2022-12-12T23:43:18.395Z,15.30
2022-12-12T23:45:45.197Z,12.73
2022-12-12T23:48:11.947Z,13.82
2022-12-12T23:50:38.598Z,12.93
2022-12-12T23:53:10.422Z,13.67
2022-12-12T23:55:37.397Z,13.00
2022-12-12T23:58:04.058Z,14.90
